Details for Transavia (Netherlands) at EHAM




Go Back


Latest METAR
Local Time

EHAM 221025Z 24016KT 210V270 9999 FEW033TCU 16/08 Q1017 NOSIG
22/09/2018, 12:53:43

Description
Results
Transavia (Netherlands) Logo
Number of Pilots based at EHAM
2 Pilots Based here
Number of Transavia (Netherlands) Flights Departed from EHAM
14 Flights Departed
Number of Transavia (Netherlands) Flights Arrived at EHAM
14 Flights Arrived
Number of Transavia (Netherlands) Schedules Departing from EHAM
214 Schedules
Number of Transavia (Netherlands) Schedules Arriving at EHAM
216 Schedules
Number of Transavia (Netherlands) Schedules Departing from EHAM availible today
43 Schedules Today
Number of Transavia (Netherlands) Schedules Arriving at EHAM availible today
44 Schedules Today
Average Landing Rate at EHAM
-212 fpm
Transavia (Netherlands) Average Landing Rate at EHAM
-199 fpm
Total Fuel Purchased at EHAM by Transavia (Netherlands)
108,860.37 kgs / 239,993.57 lbs

Pilots Based at EHAM


Pilot ID
Pilot Name
Pilot Rank
No. of Flights
No. of Flying Hours
Youri Rutten
85
202.27
James Hatcher
130
556.42
Content